Time;durP1;ratioP1;P1;durP2;ratioP2;P2;SDS_P1;SDS_P2;PMS_P1;PMS_P2;Temp;Humidity;BMP_temperature;BMP_pressure;BME280_temperature;BME280_humidity;BME280_pressure;Samples;Min_cycle;Max_cycle;Signal;HPM_P1;HPM_P2
2022/04/30 06:01:22;;;;;;;33.28;16.73;;;;;;;;;;5486656;23;20055;-82
2022/04/30 06:03:49;;;;;;;29.73;16.45;;;;;;;;;;4932269;29;20428;-83
2022/04/30 06:06:18;;;;;;;27.30;16.45;;;;;;;;;;4932314;29;20063;-82
2022/04/30 06:08:45;;;;;;;28.63;16.08;;;;;;;;;;4930857;29;20431;-82
2022/04/30 06:11:12;;;;;;;29.17;15.68;;;;;;;;;;4934960;29;20083;-82
2022/04/30 06:13:38;;;;;;;30.77;15.98;;;;;;;;;;4935582;29;20090;-83
2022/04/30 06:16:05;;;;;;;32.03;16.45;;;;;;;;;;4935284;29;20147;-82
2022/04/30 06:18:32;;;;;;;29.20;15.57;;;;;;;;;;4934936;29;20056;-82
2022/04/30 06:20:58;;;;;;;29.10;17.10;;;;;;;;;;4936200;29;20099;-82
2022/04/30 06:23:25;;;;;;;30.10;15.68;;;;;;;;;;4918208;29;20078;-82
2022/04/30 06:25:51;;;;;;;28.42;16.63;;;;;;;;;;4935037;29;20083;-82
2022/04/30 06:28:18;;;;;;;34.80;15.93;;;;;;;;;;4932623;29;20159;-81
2022/04/30 06:30:44;;;;;;;24.83;15.77;;;;;;;;;;4922797;29;20047;-82
2022/04/30 06:33:11;;;;;;;29.10;15.50;;;;;;;;;;4924542;29;20087;-80
2022/04/30 06:35:38;;;;;;;31.02;15.40;;;;;;;;;;4935602;29;20127;-84
2022/04/30 06:38:04;;;;;;;29.83;16.52;;;;;;;;;;4934253;29;20107;-81
2022/04/30 06:40:31;;;;;;;31.42;15.50;;;;;;;;;;4938825;28;20579;-81
2022/04/30 06:42:59;;;;;;;24.85;14.30;;;;;;;;;;4926026;29;20127;-82
2022/04/30 06:45:26;;;;;;;28.13;14.80;;;;;;;;;;4934402;29;20059;-83
2022/04/30 06:47:52;;;;;;;26.00;15.13;;;;;;;;;;4935308;29;20110;-83
2022/04/30 06:50:19;;;;;;;27.50;14.55;;;;;;;;;;4934350;29;20075;-83
2022/04/30 06:58:17;;;;;;;24.67;13.88;;;;;;;;;;4933042;29;20052;-83
2022/04/30 07:03:24;;;;;;;24.73;14.10;;;;;;;;;;4927141;29;20052;-85
2022/04/30 07:05:51;;;;;;;23.17;13.27;;;;;;;;;;4929887;29;20051;-84
2022/04/30 07:08:18;;;;;;;25.38;13.15;;;;;;;;;;4929874;29;20086;-84
2022/04/30 07:10:45;;;;;;;31.88;13.80;;;;;;;;;;4944025;28;20432;-83
2022/04/30 07:13:11;;;;;;;22.25;12.68;;;;;;;;;;4930821;28;20079;-83
2022/04/30 07:15:38;;;;;;;21.42;13.90;;;;;;;;;;4930551;28;20584;-82
2022/04/30 07:18:05;;;;;;;24.30;13.27;;;;;;;;;;4929322;29;20429;-83
2022/04/30 07:20:32;;;;;;;20.38;12.50;;;;;;;;;;4929292;29;20078;-83
2022/04/30 07:22:58;;;;;;;21.45;12.80;;;;;;;;;;4928765;29;20071;-83
2022/04/30 07:25:25;;;;;;;19.95;13.13;;;;;;;;;;4929300;29;20052;-84
2022/04/30 07:27:51;;;;;;;20.83;12.65;;;;;;;;;;4928773;29;20534;-83
2022/04/30 07:30:18;;;;;;;21.63;13.35;;;;;;;;;;4928153;29;20079;-83
2022/04/30 07:32:44;;;;;;;23.33;12.23;;;;;;;;;;4928508;29;20138;-82
2022/04/30 07:35:11;;;;;;;21.42;12.90;;;;;;;;;;4928421;29;20059;-82
2022/04/30 07:37:38;;;;;;;27.20;12.77;;;;;;;;;;4920215;29;20079;-82
2022/04/30 07:40:05;;;;;;;21.85;12.00;;;;;;;;;;4928634;29;20524;-81
2022/04/30 07:42:31;;;;;;;22.60;12.93;;;;;;;;;;4928502;29;20130;-84
2022/04/30 07:44:59;;;;;;;17.25;12.10;;;;;;;;;;4929115;29;20119;-82
2022/04/30 07:47:26;;;;;;;25.98;12.18;;;;;;;;;;4925608;29;20107;-83
2022/04/30 07:49:53;;;;;;;23.05;12.95;;;;;;;;;;4927884;28;20071;-85
2022/04/30 07:52:19;;;;;;;25.70;12.20;;;;;;;;;;4925762;29;20130;-82
2022/04/30 07:54:47;;;;;;;21.75;12.75;;;;;;;;;;4927156;28;20080;-83
2022/04/30 07:57:13;;;;;;;18.45;11.40;;;;;;;;;;4927706;29;20489;-83
2022/04/30 07:59:40;;;;;;;26.80;11.57;;;;;;;;;;4928025;29;20082;-84
2022/04/30 08:02:06;;;;;;;21.20;12.05;;;;;;;;;;4922369;28;20052;-84
2022/04/30 08:04:33;;;;;;;16.25;11.05;;;;;;;;;;4925691;29;20058;-84
2022/04/30 08:07:00;;;;;;;18.48;10.80;;;;;;;;;;4928642;29;20174;-85
2022/04/30 08:09:26;;;;;;;21.60;11.38;;;;;;;;;;4925774;29;20098;-84
2022/04/30 08:11:53;;;;;;;15.68;10.93;;;;;;;;;;4928253;29;20107;-84
2022/04/30 08:14:20;;;;;;;17.95;11.70;;;;;;;;;;4928697;28;20544;-81
2022/04/30 08:16:46;;;;;;;20.85;11.18;;;;;;;;;;4927608;29;20076;-83
2022/04/30 08:19:16;;;;;;;16.10;11.13;;;;;;;;;;4925858;29;20136;-82
2022/04/30 08:21:43;;;;;;;14.90;10.73;;;;;;;;;;4928687;29;20047;-84
2022/04/30 08:24:30;;;;;;;19.40;11.13;;;;;;;;;;4927490;28;20043;-83
2022/04/30 08:26:57;;;;;;;18.13;10.50;;;;;;;;;;4926390;28;20051;-84
2022/04/30 08:29:23;;;;;;;22.58;11.20;;;;;;;;;;4927982;28;20108;-83
2022/04/30 08:31:50;;;;;;;16.63;10.68;;;;;;;;;;4913593;29;20048;-83
2022/04/30 08:34:17;;;;;;;20.02;10.70;;;;;;;;;;4931033;28;20052;-83
2022/04/30 08:36:45;;;;;;;20.27;11.90;;;;;;;;;;4936511;28;20043;-83
2022/04/30 08:39:12;;;;;;;18.20;10.52;;;;;;;;;;4938231;28;20118;-83
2022/04/30 08:41:42;;;;;;;18.27;10.95;;;;;;;;;;4931033;28;20138;-83
2022/04/30 08:44:14;;;;;;;19.98;11.18;;;;;;;;;;4928461;28;20067;-83
2022/04/30 08:46:41;;;;;;;18.67;11.98;;;;;;;;;;4929046;28;20113;-84
2022/04/30 08:49:08;;;;;;;17.75;11.77;;;;;;;;;;4930038;29;20135;-82
2022/04/30 08:51:35;;;;;;;18.90;11.48;;;;;;;;;;4916290;28;20107;-85
2022/04/30 08:54:02;;;;;;;16.77;10.85;;;;;;;;;;4932866;28;20086;-83
2022/04/30 08:56:28;;;;;;;16.10;10.95;;;;;;;;;;4928067;29;20139;-84
2022/04/30 08:59:04;;;;;;;19.23;11.50;;;;;;;;;;4931529;28;20119;-83
2022/04/30 09:01:43;;;;;;;16.00;11.23;;;;;;;;;;4919360;29;20151;-83
2022/04/30 09:04:09;;;;;;;;;;;;;;;;;;4913748;29;20432;-88
2022/04/30 09:06:46;;;;;;;23.23;11.50;;;;;;;;;;4912901;29;19977;-85
2022/04/30 09:09:22;;;;;;;18.50;11.30;;;;;;;;;;4925361;29;20468;-85
2022/04/30 09:11:49;;;;;;;18.15;10.55;;;;;;;;;;4916198;29;20135;-85
2022/04/30 09:14:24;;;;;;;18.60;11.30;;;;;;;;;;4917433;29;20131;-85
2022/04/30 09:17:10;;;;;;;15.15;10.50;;;;;;;;;;4918135;29;20094;-86
2022/04/30 09:19:46;;;;;;;17.67;10.65;;;;;;;;;;4919244;29;20064;-84
2022/04/30 09:22:15;;;;;;;16.42;10.43;;;;;;;;;;4917059;29;20456;-83
2022/04/30 09:24:49;;;;;;;18.90;10.70;;;;;;;;;;4915584;29;20086;-85
2022/04/30 09:27:50;;;;;;;15.63;11.02;;;;;;;;;;4908835;29;20044;-84
2022/04/30 09:30:17;;;;;;;18.63;11.55;;;;;;;;;;4923722;29;20040;-83
2022/04/30 09:32:44;;;;;;;16.88;11.57;;;;;;;;;;4917250;29;20079;-84
2022/04/30 09:38:04;;;;;;;16.33;10.45;;;;;;;;;;4916203;29;20098;-83
2022/04/30 09:40:31;;;;;;;13.45;9.82;;;;;;;;;;4916577;29;20052;-86
2022/04/30 09:42:58;;;;;;;17.20;10.48;;;;;;;;;;4917035;29;20102;-85
2022/04/30 09:45:33;;;;;;;16.30;10.60;;;;;;;;;;4916842;29;20128;-85
2022/04/30 09:48:01;;;;;;;14.85;9.90;;;;;;;;;;4925051;29;20048;-86
2022/04/30 09:56:06;;;;;;;16.63;9.38;;;;;;;;;;4917622;29;20075;-86
2022/04/30 09:58:39;;;;;;;13.20;9.82;;;;;;;;;;4920384;29;20040;-85
2022/04/30 10:01:11;;;;;;;17.98;9.75;;;;;;;;;;4912956;28;20071;-85
2022/04/30 10:03:41;;;;;;;16.45;10.70;;;;;;;;;;4920625;29;20048;-85
2022/04/30 10:06:08;;;;;;;15.02;10.57;;;;;;;;;;4938801;28;20527;-83
2022/04/30 10:08:37;;;;;;;19.42;11.52;;;;;;;;;;4938355;28;20104;-84
2022/04/30 10:11:16;;;;;;;22.10;11.00;;;;;;;;;;4935305;29;20149;-82
2022/04/30 10:13:53;;;;;;;;;;;;;;;;;;4926989;28;20083;-84
2022/04/30 10:16:26;;;;;;;12.55;9.27;;;;;;;;;;4937762;28;19973;-85
2022/04/30 10:19:09;;;;;;;15.35;10.40;;;;;;;;;;4937895;29;20130;-85
2022/04/30 10:21:38;;;;;;;13.25;9.52;;;;;;;;;;4928525;29;20183;-86
2022/04/30 10:24:06;;;;;;;12.93;9.20;;;;;;;;;;4937688;28;20075;-85
2022/04/30 10:26:33;;;;;;;12.57;8.60;;;;;;;;;;4937881;28;20055;-86
2022/04/30 10:29:20;;;;;;;9.50;7.82;;;;;;;;;;4937912;28;20092;-86
2022/04/30 10:31:46;;;;;;;13.48;8.82;;;;;;;;;;4938026;28;20090;-86
2022/04/30 10:34:13;;;;;;;13.60;8.80;;;;;;;;;;4932995;29;20051;-85
2022/04/30 10:36:54;;;;;;;12.32;8.45;;;;;;;;;;4921705;29;20412;-86
2022/04/30 10:39:21;;;;;;;18.88;8.95;;;;;;;;;;4934471;28;20055;-86
2022/04/30 10:41:55;;;;;;;11.05;8.20;;;;;;;;;;4938446;28;20051;-86
2022/04/30 10:44:29;;;;;;;16.05;8.80;;;;;;;;;;4937351;28;20054;-85
2022/04/30 10:47:06;;;;;;;12.35;8.90;;;;;;;;;;4937488;28;20487;-85
2022/04/30 10:49:33;;;;;;;14.52;7.82;;;;;;;;;;4934916;29;20071;-85
2022/04/30 10:52:01;;;;;;;15.95;9.20;;;;;;;;;;4944157;28;20131;-85
2022/04/30 10:54:29;;;;;;;13.82;9.38;;;;;;;;;;4929914;28;20052;-84
2022/04/30 10:57:04;;;;;;;16.97;8.83;;;;;;;;;;4938674;28;20169;-84
2022/04/30 10:59:31;;;;;;;11.75;8.70;;;;;;;;;;4942637;28;20093;-84
2022/04/30 11:01:59;;;;;;;14.35;8.80;;;;;;;;;;4941673;28;20079;-85
2022/04/30 11:04:27;;;;;;;19.73;9.10;;;;;;;;;;4932930;28;20075;-85
2022/04/30 11:06:54;;;;;;;15.45;9.25;;;;;;;;;;4927856;29;20110;-85
2022/04/30 11:09:21;;;;;;;13.98;8.65;;;;;;;;;;4937777;28;20071;-85
2022/04/30 11:11:50;;;;;;;12.05;8.85;;;;;;;;;;4934693;28;20423;-83
2022/04/30 11:14:19;;;;;;;15.65;9.70;;;;;;;;;;4930362;28;20516;-83
2022/04/30 11:16:49;;;;;;;12.20;9.18;;;;;;;;;;4934725;28;20086;-82
2022/04/30 11:19:19;;;;;;;11.25;8.15;;;;;;;;;;4932872;28;20107;-81
2022/04/30 11:21:51;;;;;;;10.90;8.30;;;;;;;;;;4929477;28;20087;-84
2022/04/30 11:24:26;;;;;;;10.38;8.05;;;;;;;;;;4933501;28;20516;-82
2022/04/30 11:26:55;;;;;;;11.65;7.35;;;;;;;;;;4930056;28;20079;-82
2022/04/30 11:29:22;;;;;;;12.65;8.52;;;;;;;;;;4928920;29;20054;-82
2022/04/30 11:31:52;;;;;;;15.32;7.90;;;;;;;;;;4924573;29;20063;-82
2022/04/30 11:34:19;;;;;;;12.10;8.20;;;;;;;;;;4924903;29;20046;-82
2022/04/30 11:36:51;;;;;;;12.45;7.50;;;;;;;;;;4924411;29;20082;-83
2022/04/30 11:39:18;;;;;;;10.05;7.90;;;;;;;;;;4927213;29;20595;-84
2022/04/30 11:41:48;;;;;;;14.10;7.68;;;;;;;;;;4930690;29;20071;-83
2022/04/30 11:44:16;;;;;;;12.57;7.28;;;;;;;;;;4927691;28;20052;-82
2022/04/30 11:46:45;;;;;;;11.50;7.22;;;;;;;;;;4926967;28;20143;-82
2022/04/30 11:49:14;;;;;;;11.60;8.00;;;;;;;;;;4927107;29;20047;-84
2022/04/30 11:52:02;;;;;;;12.85;7.88;;;;;;;;;;4928119;28;20064;-83
2022/04/30 11:54:29;;;;;;;12.57;8.32;;;;;;;;;;4912736;29;20139;-84
2022/04/30 11:57:00;;;;;;;9.73;7.72;;;;;;;;;;4930404;28;20443;-84
2022/04/30 11:59:31;;;;;;;11.23;7.40;;;;;;;;;;4930100;28;20453;-82
2022/04/30 12:02:09;;;;;;;14.00;8.00;;;;;;;;;;4940986;28;20526;-82
2022/04/30 12:04:41;;;;;;;12.80;7.38;;;;;;;;;;4943798;28;20488;-81
2022/04/30 12:07:09;;;;;;;11.60;7.22;;;;;;;;;;4936593;28;20463;-82
2022/04/30 12:09:38;;;;;;;15.13;8.25;;;;;;;;;;4918416;29;20570;-82
2022/04/30 12:12:23;;;;;;;11.43;7.88;;;;;;;;;;4944802;28;20055;-82
2022/04/30 12:14:55;;;;;;;10.48;7.78;;;;;;;;;;4932922;28;20056;-82
2022/04/30 12:17:32;;;;;;;11.05;7.35;;;;;;;;;;4937122;28;20520;-82
2022/04/30 12:26:03;;;;;;;9.27;6.80;;;;;;;;;;4936342;28;20118;-83
2022/04/30 12:28:48;;;;;;;11.90;7.10;;;;;;;;;;4934974;28;20047;-82
2022/04/30 12:31:14;;;;;;;11.85;6.65;;;;;;;;;;4934921;28;20431;-84
2022/04/30 12:33:48;;;;;;;8.38;6.10;;;;;;;;;;4929708;28;20059;-81
2022/04/30 12:36:16;;;;;;;10.70;6.28;;;;;;;;;;4933390;28;20052;-83
2022/04/30 12:38:56;;;;;;;9.65;6.00;;;;;;;;;;4932811;29;20056;-83
2022/04/30 12:41:23;;;;;;;8.40;6.28;;;;;;;;;;4942635;28;20110;-85
2022/04/30 12:43:51;;;;;;;6.85;5.70;;;;;;;;;;4944732;28;20051;-85
2022/04/30 12:46:22;;;;;;;10.95;5.90;;;;;;;;;;4927748;28;20079;-86
2022/04/30 12:48:50;;;;;;;8.48;6.15;;;;;;;;;;4923536;29;20048;-84
2022/04/30 12:51:19;;;;;;;10.53;6.13;;;;;;;;;;4926010;28;20048;-85
2022/04/30 12:53:46;;;;;;;10.27;6.25;;;;;;;;;;4924302;29;20310;-84
2022/04/30 12:56:13;;;;;;;10.82;6.25;;;;;;;;;;4925146;29;20099;-83
2022/04/30 12:58:40;;;;;;;9.45;6.40;;;;;;;;;;4928542;29;20075;-85
2022/04/30 13:01:06;;;;;;;10.00;6.53;;;;;;;;;;4930138;28;20060;-82
2022/04/30 13:03:34;;;;;;;10.32;6.22;;;;;;;;;;4928481;29;20459;-82
2022/04/30 13:06:02;;;;;;;10.25;5.50;;;;;;;;;;4929492;29;20075;-82
2022/04/30 13:13:31;;;;;;;9.95;5.68;;;;;;;;;;4928054;29;20047;-83
2022/04/30 13:14:00;;;;;;;7.70;4.90;;;;;;;;;;4928364;29;20083;-83
2022/04/30 13:16:27;;;;;;;7.65;4.78;;;;;;;;;;4926742;29;20074;-83
2022/04/30 13:18:53;;;;;;;8.90;4.88;;;;;;;;;;4931152;29;20051;-84
2022/04/30 13:21:20;;;;;;;6.78;5.30;;;;;;;;;;4931997;29;20142;-82
2022/04/30 13:23:46;;;;;;;7.43;4.82;;;;;;;;;;4930718;28;20135;-85
2022/04/30 13:26:16;;;;;;;8.23;5.60;;;;;;;;;;4931448;29;20062;-83
2022/04/30 13:28:43;;;;;;;7.97;4.85;;;;;;;;;;4933092;29;20135;-83
2022/04/30 13:31:10;;;;;;;7.80;4.97;;;;;;;;;;4931639;28;20090;-82
2022/04/30 13:33:38;;;;;;;8.90;4.55;;;;;;;;;;4933121;29;20070;-84
2022/04/30 13:36:05;;;;;;;8.77;4.63;;;;;;;;;;4934075;28;20145;-83
2022/04/30 13:38:32;;;;;;;6.80;4.40;;;;;;;;;;4933131;29;20331;-85
2022/04/30 13:40:59;;;;;;;5.68;3.70;;;;;;;;;;4933154;29;20133;-85
2022/04/30 13:43:25;;;;;;;9.93;4.05;;;;;;;;;;4930274;29;20135;-84
2022/04/30 13:45:52;;;;;;;7.22;4.70;;;;;;;;;;4933049;29;20123;-84
2022/04/30 13:48:19;;;;;;;10.13;4.00;;;;;;;;;;4926906;29;20047;-84
2022/04/30 13:50:45;;;;;;;7.47;4.30;;;;;;;;;;4932148;28;20071;-84
2022/04/30 13:53:12;;;;;;;12.02;4.60;;;;;;;;;;4931474;28;20075;-84
2022/04/30 13:55:39;;;;;;;6.22;3.88;;;;;;;;;;4926874;29;20143;-83
2022/04/30 13:58:05;;;;;;;9.65;3.50;;;;;;;;;;4929551;29;20457;-84
2022/04/30 14:00:32;;;;;;;7.93;3.83;;;;;;;;;;4931215;29;20087;-85
2022/04/30 14:02:59;;;;;;;11.45;5.00;;;;;;;;;;4931796;29;20424;-84
2022/04/30 14:05:25;;;;;;;11.45;4.40;;;;;;;;;;4928574;29;20522;-84
2022/04/30 14:07:52;;;;;;;8.23;4.10;;;;;;;;;;4929668;29;20832;-84
2022/04/30 14:10:21;;;;;;;10.20;4.40;;;;;;;;;;4930600;29;20587;-84
2022/04/30 14:12:53;;;;;;;9.38;4.15;;;;;;;;;;4931662;28;20519;-84
2022/04/30 14:15:21;;;;;;;7.05;4.20;;;;;;;;;;4931576;29;20130;-84
2022/04/30 14:20:33;;;;;;;14.07;4.15;;;;;;;;;;4931650;29;20043;-84
2022/04/30 14:23:00;;;;;;;6.90;4.00;;;;;;;;;;4931445;28;20071;-84
2022/04/30 14:25:27;;;;;;;7.18;3.90;;;;;;;;;;4928808;28;20047;-84
2022/04/30 14:27:55;;;;;;;7.88;3.70;;;;;;;;;;4929592;28;20879;-84
2022/04/30 14:30:21;;;;;;;8.85;4.43;;;;;;;;;;4929179;29;20086;-84
2022/04/30 14:32:48;;;;;;;9.23;3.80;;;;;;;;;;4932140;29;20055;-84
2022/04/30 14:35:15;;;;;;;5.65;4.10;;;;;;;;;;4934429;28;20094;-82
2022/04/30 14:37:42;;;;;;;7.15;4.00;;;;;;;;;;4932615;29;20436;-82
2022/04/30 14:40:09;;;;;;;9.43;3.60;;;;;;;;;;4931344;29;20067;-82
2022/04/30 14:42:37;;;;;;;8.00;4.13;;;;;;;;;;4932467;29;20072;-83
2022/04/30 14:45:04;;;;;;;6.60;3.60;;;;;;;;;;4944813;28;20526;-83
2022/04/30 14:47:31;;;;;;;8.98;3.88;;;;;;;;;;4937647;28;20098;-82
2022/04/30 14:50:01;;;;;;;8.02;3.90;;;;;;;;;;4931666;28;20110;-84
2022/04/30 14:52:27;;;;;;;6.63;3.70;;;;;;;;;;4931129;28;20445;-81
2022/04/30 14:54:56;;;;;;;9.27;4.10;;;;;;;;;;4946612;28;20504;-83
2022/04/30 14:57:23;;;;;;;6.15;3.80;;;;;;;;;;4949759;28;20058;-84
2022/04/30 14:59:50;;;;;;;9.18;3.67;;;;;;;;;;4937238;28;20099;-83
2022/04/30 15:02:17;;;;;;;6.82;3.65;;;;;;;;;;4935673;28;20056;-83
2022/04/30 15:04:44;;;;;;;5.68;3.75;;;;;;;;;;4938763;28;20047;-83
2022/04/30 15:07:13;;;;;;;6.28;3.88;;;;;;;;;;4930190;28;20118;-83
2022/04/30 15:09:40;;;;;;;6.78;3.95;;;;;;;;;;4941703;28;20051;-83
2022/04/30 15:12:09;;;;;;;7.43;4.10;;;;;;;;;;4936949;28;20055;-84
2022/04/30 15:14:35;;;;;;;9.80;3.60;;;;;;;;;;4936449;29;20082;-85
2022/04/30 15:17:02;;;;;;;6.32;3.95;;;;;;;;;;4933239;29;20705;-85
2022/04/30 15:19:29;;;;;;;8.02;4.55;;;;;;;;;;4937775;28;20411;-86
2022/04/30 15:21:56;;;;;;;7.13;4.10;;;;;;;;;;4936219;29;20043;-84
2022/04/30 15:24:22;;;;;;;7.97;4.78;;;;;;;;;;4935493;28;20528;-84
2022/04/30 15:26:49;;;;;;;9.57;4.28;;;;;;;;;;4933860;28;20103;-83
2022/04/30 15:29:16;;;;;;;7.03;4.90;;;;;;;;;;4937374;28;20127;-84
2022/04/30 15:31:43;;;;;;;8.75;4.90;;;;;;;;;;4939435;29;20058;-83
2022/04/30 15:34:09;;;;;;;9.80;5.30;;;;;;;;;;4938576;28;20040;-84
2022/04/30 15:36:42;;;;;;;8.20;4.35;;;;;;;;;;4929204;28;20107;-85
2022/04/30 15:39:09;;;;;;;8.57;4.63;;;;;;;;;;4929035;28;20131;-84
2022/04/30 15:41:36;;;;;;;6.30;4.15;;;;;;;;;;4938340;28;20445;-85
2022/04/30 15:44:03;;;;;;;9.68;4.60;;;;;;;;;;4938434;28;20086;-84
2022/04/30 15:52:02;;;;;;;12.75;4.90;;;;;;;;;;4944576;28;20062;-85
2022/04/30 15:54:33;;;;;;;8.52;4.18;;;;;;;;;;4947889;28;20055;-85
2022/04/30 15:57:00;;;;;;;10.38;4.97;;;;;;;;;;4939778;28;20075;-84
2022/04/30 15:59:27;;;;;;;9.77;4.68;;;;;;;;;;4938214;28;20583;-85
2022/04/30 16:01:54;;;;;;;16.90;6.25;;;;;;;;;;4936197;28;20496;-84
2022/04/30 16:04:22;;;;;;;10.98;5.80;;;;;;;;;;4934759;28;20047;-85
2022/04/30 16:06:49;;;;;;;11.32;4.88;;;;;;;;;;4934982;29;20464;-85
2022/04/30 16:09:17;;;;;;;9.32;5.30;;;;;;;;;;4941106;28;20056;-85
2022/04/30 16:11:43;;;;;;;14.25;5.70;;;;;;;;;;4937846;28;20127;-84
2022/04/30 16:14:10;;;;;;;11.65;6.28;;;;;;;;;;4935293;29;20102;-84
2022/04/30 16:16:37;;;;;;;10.35;5.90;;;;;;;;;;4931927;28;20666;-84
2022/04/30 16:19:07;;;;;;;9.27;5.13;;;;;;;;;;4943820;28;20146;-84
2022/04/30 16:21:34;;;;;;;8.60;5.60;;;;;;;;;;4933263;28;20071;-84
2022/04/30 16:24:02;;;;;;;10.80;6.05;;;;;;;;;;4948268;28;20529;-84
2022/04/30 16:26:30;;;;;;;12.38;5.55;;;;;;;;;;4940953;28;20108;-84
2022/04/30 16:28:57;;;;;;;11.32;5.82;;;;;;;;;;4942271;28;20094;-84
2022/04/30 16:31:23;;;;;;;14.60;6.72;;;;;;;;;;4944168;28;20055;-85
2022/04/30 16:33:50;;;;;;;12.77;6.88;;;;;;;;;;4947374;28;20039;-85
2022/04/30 16:36:18;;;;;;;8.07;6.13;;;;;;;;;;4944921;28;20043;-84
2022/04/30 16:38:44;;;;;;;8.98;7.15;;;;;;;;;;4938979;28;20079;-84
2022/04/30 16:41:14;;;;;;;10.82;6.57;;;;;;;;;;4938199;28;20066;-84
2022/04/30 16:43:41;;;;;;;8.93;6.45;;;;;;;;;;4933491;29;20128;-83
2022/04/30 16:46:10;;;;;;;10.98;6.80;;;;;;;;;;4928294;29;20064;-84
2022/04/30 16:48:37;;;;;;;15.05;7.82;;;;;;;;;;4928970;29;20056;-85
2022/04/30 16:53:49;;;;;;;13.60;7.28;;;;;;;;;;4918482;29;20118;-83
2022/04/30 16:59:20;;;;;;;15.23;9.13;;;;;;;;;;4923787;28;20055;-82
2022/04/30 17:01:47;;;;;;;16.08;9.82;;;;;;;;;;4919316;29;20481;-82
2022/04/30 17:04:14;;;;;;;14.25;9.65;;;;;;;;;;4909328;29;20048;-85
2022/04/30 17:06:41;;;;;;;15.75;10.65;;;;;;;;;;4907944;29;20167;-83
2022/04/30 17:09:07;;;;;;;16.42;10.43;;;;;;;;;;4903695;29;20509;-82
2022/04/30 17:11:34;;;;;;;17.40;9.48;;;;;;;;;;4911002;29;20135;-83
2022/04/30 17:14:01;;;;;;;14.30;10.38;;;;;;;;;;4911990;29;20130;-82
2022/04/30 17:16:31;;;;;;;19.00;10.43;;;;;;;;;;4911204;29;20071;-84
2022/04/30 17:19:01;;;;;;;14.70;9.70;;;;;;;;;;4907099;29;20082;-82
2022/04/30 17:21:30;;;;;;;13.70;9.32;;;;;;;;;;4910850;29;20080;-83
2022/04/30 17:23:56;;;;;;;16.30;9.23;;;;;;;;;;4910190;29;20049;-84
2022/04/30 17:26:23;;;;;;;15.98;9.73;;;;;;;;;;4911175;29;22902;-84
2022/04/30 17:28:50;;;;;;;16.05;10.10;;;;;;;;;;4911545;29;20537;-85
2022/04/30 17:39:38;;;;;;;14.38;10.10;;;;;;;;;;4904886;29;20454;-85
2022/04/30 17:42:04;;;;;;;16.92;10.50;;;;;;;;;;4913542;29;20135;-82
2022/04/30 17:44:31;;;;;;;17.23;10.23;;;;;;;;;;4912729;29;20569;-84
2022/04/30 17:46:58;;;;;;;21.90;10.65;;;;;;;;;;4911599;29;20474;-85
2022/04/30 17:49:25;;;;;;;19.33;11.30;;;;;;;;;;4911971;29;20138;-87
2022/04/30 17:51:54;;;;;;;18.67;10.82;;;;;;;;;;4910458;29;20505;-86
2022/04/30 17:54:21;;;;;;;19.50;11.35;;;;;;;;;;4900892;29;20104;-88
2022/04/30 17:56:48;;;;;;;21.13;11.32;;;;;;;;;;4919012;29;20052;-88
2022/04/30 17:59:16;;;;;;;19.00;10.90;;;;;;;;;;4906803;29;20200;-85
2022/04/30 18:01:44;;;;;;;20.33;11.23;;;;;;;;;;4928836;29;20052;-86
2022/04/30 18:04:12;;;;;;;17.20;10.50;;;;;;;;;;4934968;28;20075;-87
2022/04/30 18:06:40;;;;;;;17.67;11.30;;;;;;;;;;4929261;29;20084;-85
2022/04/30 18:09:07;;;;;;;19.53;11.10;;;;;;;;;;4935340;28;20102;-88
2022/04/30 18:11:33;;;;;;;22.48;10.32;;;;;;;;;;4940374;28;20437;-86
2022/04/30 18:14:00;;;;;;;21.00;11.50;;;;;;;;;;4935156;28;20055;-86
2022/04/30 18:16:27;;;;;;;15.40;11.23;;;;;;;;;;4937277;28;20440;-88
2022/04/30 18:18:54;;;;;;;20.95;10.40;;;;;;;;;;4944425;28;20039;-87
2022/04/30 18:21:20;;;;;;;15.25;11.05;;;;;;;;;;4931417;28;20521;-83
2022/04/30 18:23:47;;;;;;;19.67;10.57;;;;;;;;;;4952914;28;20512;-88
2022/04/30 18:26:13;;;;;;;20.80;10.82;;;;;;;;;;4935103;28;20072;-88
2022/04/30 18:28:41;;;;;;;18.30;10.77;;;;;;;;;;4935844;28;20083;-91
2022/04/30 18:31:07;;;;;;;15.55;10.77;;;;;;;;;;4936989;28;20118;-85
2022/04/30 18:33:34;;;;;;;20.27;11.35;;;;;;;;;;4931119;28;20051;-86
2022/04/30 18:36:00;;;;;;;16.55;11.00;;;;;;;;;;4939185;28;20082;-88
2022/04/30 18:38:27;;;;;;;15.55;10.55;;;;;;;;;;4936854;28;20051;-87
2022/04/30 18:40:54;;;;;;;14.60;10.82;;;;;;;;;;4933739;28;20405;-87
2022/04/30 18:43:20;;;;;;;16.80;10.73;;;;;;;;;;4932442;28;20048;-88
2022/04/30 18:45:48;;;;;;;21.15;11.23;;;;;;;;;;4936431;29;20048;-89
2022/04/30 18:48:16;;;;;;;16.30;10.50;;;;;;;;;;4933249;28;20055;-85
2022/04/30 18:50:42;;;;;;;17.25;11.10;;;;;;;;;;4931331;28;20119;-86
2022/04/30 18:53:09;;;;;;;20.10;10.13;;;;;;;;;;4954813;28;20138;-85
2022/04/30 19:01:26;;;;;;;19.13;11.23;;;;;;;;;;4876688;29;20045;-85
2022/04/30 19:03:53;;;;;;;19.55;11.05;;;;;;;;;;4876641;29;20585;-85
2022/04/30 19:06:20;;;;;;;16.42;11.35;;;;;;;;;;4875312;29;20060;-84
2022/04/30 19:08:47;;;;;;;19.45;12.05;;;;;;;;;;4879779;29;20113;-85
2022/04/30 19:11:15;;;;;;;30.08;12.77;;;;;;;;;;4875017;29;20152;-87
2022/04/30 19:13:43;;;;;;;25.52;12.48;;;;;;;;;;4879317;29;20143;-87
2022/04/30 19:16:10;;;;;;;21.83;12.60;;;;;;;;;;4876372;29;20041;-87
2022/04/30 19:18:37;;;;;;;21.45;12.68;;;;;;;;;;4890850;29;20861;-90
2022/04/30 19:21:03;;;;;;;22.65;12.75;;;;;;;;;;4890749;29;20068;-89
2022/04/30 19:23:30;;;;;;;20.65;13.60;;;;;;;;;;4885745;29;20049;-88
2022/04/30 19:25:57;;;;;;;23.17;13.32;;;;;;;;;;4883935;29;20056;-90
2022/04/30 19:28:24;;;;;;;19.10;13.63;;;;;;;;;;4879067;29;20052;-84
2022/04/30 19:30:51;;;;;;;27.50;14.38;;;;;;;;;;4876273;29;20044;-85
2022/04/30 19:33:18;;;;;;;21.58;13.50;;;;;;;;;;4917244;28;20052;-86
2022/04/30 19:35:44;;;;;;;25.05;14.82;;;;;;;;;;4927466;29;20071;-85
2022/04/30 19:38:11;;;;;;;28.77;14.80;;;;;;;;;;4934604;28;20122;-87
2022/04/30 19:40:38;;;;;;;26.13;15.35;;;;;;;;;;4950893;28;20126;-90
2022/04/30 19:43:06;;;;;;;25.52;15.40;;;;;;;;;;4931715;28;20485;-88
2022/04/30 19:45:33;;;;;;;23.75;15.48;;;;;;;;;;4933179;28;20039;-89
2022/04/30 19:48:01;;;;;;;24.42;15.27;;;;;;;;;;4935480;29;20082;-89
2022/04/30 19:50:28;;;;;;;23.17;16.30;;;;;;;;;;4934824;28;20043;-89
2022/04/30 19:52:55;;;;;;;30.45;16.23;;;;;;;;;;4939639;29;20099;-89
2022/04/30 19:55:22;;;;;;;30.75;16.27;;;;;;;;;;4944456;28;20476;-88
2022/04/30 19:57:50;;;;;;;26.60;16.50;;;;;;;;;;4928103;29;20509;-89
2022/04/30 20:00:17;;;;;;;31.50;16.00;;;;;;;;;;4939635;28;20072;-90
2022/04/30 20:02:43;;;;;;;29.63;16.58;;;;;;;;;;4931940;28;20072;-89
2022/04/30 20:05:11;;;;;;;26.67;16.48;;;;;;;;;;4941130;28;20087;-88
2022/04/30 20:07:39;;;;;;;29.55;18.15;;;;;;;;;;4929096;28;20114;-88
2022/04/30 20:18:27;;;;;;;34.03;18.85;;;;;;;;;;4921167;29;20071;-88
2022/04/30 20:20:55;;;;;;;31.33;18.52;;;;;;;;;;4925519;29;20048;-88
2022/04/30 20:23:24;;;;;;;32.33;18.73;;;;;;;;;;4927677;29;20140;-87
2022/04/30 20:25:53;;;;;;;35.60;20.40;;;;;;;;;;4922354;29;20055;-88
2022/04/30 20:28:20;;;;;;;32.45;18.98;;;;;;;;;;4929500;28;20043;-88
2022/04/30 20:39:03;;;;;;;39.58;22.48;;;;;;;;;;4921137;29;20138;-88
2022/04/30 20:41:30;;;;;;;33.70;21.42;;;;;;;;;;4936223;28;20058;-88
2022/04/30 20:43:58;;;;;;;38.67;22.25;;;;;;;;;;4928933;28;20148;-88
2022/04/30 20:46:27;;;;;;;41.33;23.02;;;;;;;;;;4930532;28;20044;-88
2022/04/30 20:48:56;;;;;;;33.22;21.60;;;;;;;;;;4932751;29;20059;-87
2022/04/30 20:51:28;;;;;;;44.53;23.88;;;;;;;;;;4926106;28;20976;-89
2022/04/30 20:53:57;;;;;;;37.65;23.92;;;;;;;;;;4920817;29;20071;-88
2022/04/30 20:56:24;;;;;;;41.53;24.15;;;;;;;;;;4925699;28;20695;-88
2022/04/30 20:58:50;;;;;;;46.00;26.05;;;;;;;;;;4928811;28;20143;-88
2022/04/30 21:01:17;;;;;;;44.03;25.77;;;;;;;;;;4932193;28;20484;-89
2022/04/30 21:03:44;;;;;;;43.88;25.33;;;;;;;;;;4919407;29;20512;-88
2022/04/30 21:06:10;;;;;;;41.67;26.58;;;;;;;;;;4905936;29;20513;-86
2022/04/30 21:08:38;;;;;;;46.92;26.52;;;;;;;;;;4902366;29;20044;-88
2022/04/30 21:11:06;;;;;;;39.05;25.35;;;;;;;;;;4926715;29;20139;-88
2022/04/30 21:13:32;;;;;;;43.83;26.92;;;;;;;;;;4912409;29;20044;-88
2022/04/30 21:16:00;;;;;;;38.22;26.98;;;;;;;;;;4915643;29;20043;-89
2022/04/30 21:18:26;;;;;;;51.00;27.33;;;;;;;;;;4914596;29;20055;-89
2022/04/30 21:20:53;;;;;;;45.95;27.60;;;;;;;;;;4934459;29;20130;-91
2022/04/30 21:23:19;;;;;;;44.97;26.95;;;;;;;;;;4913912;29;20083;-89
2022/04/30 21:25:47;;;;;;;43.35;27.10;;;;;;;;;;4932875;29;20056;-86
2022/04/30 21:28:14;;;;;;;47.40;28.83;;;;;;;;;;4932213;29;20044;-89
2022/04/30 21:30:45;;;;;;;48.80;28.08;;;;;;;;;;4935233;28;20044;-89
2022/04/30 21:33:15;;;;;;;50.22;28.65;;;;;;;;;;4933700;28;20048;-89
2022/04/30 21:35:44;;;;;;;50.17;28.77;;;;;;;;;;4944600;28;20051;-89
2022/04/30 21:38:12;;;;;;;53.40;30.20;;;;;;;;;;4940657;28;20047;-87
2022/04/30 21:43:26;;;;;;;56.67;29.60;;;;;;;;;;4932678;28;20051;-86
2022/04/30 21:45:54;;;;;;;54.78;30.17;;;;;;;;;;4905625;29;20052;-88